createdAt,value
2018-07-07T00:00:14.017Z,97435.90
2018-07-07T00:01:53.579Z,97435.95
2018-07-07T00:03:29.680Z,97433.97
2018-07-07T00:05:05.752Z,97433.49
2018-07-07T00:06:41.335Z,97438.80
2018-07-07T00:08:16.705Z,97436.30
2018-07-07T00:09:52.602Z,97437.48
2018-07-07T00:11:28.928Z,97434.63
2018-07-07T00:13:04.969Z,97439.78
2018-07-07T00:14:40.544Z,97436.17
2018-07-07T00:16:17.209Z,97443.91
2018-07-07T00:17:52.569Z,97441.55
2018-07-07T00:19:29.311Z,97442.73
2018-07-07T00:21:05.777Z,97440.77
2018-07-07T00:22:43.567Z,97432.80
2018-07-07T00:24:19.445Z,97437.77
2018-07-07T00:25:55.421Z,97432.38
2018-07-07T00:27:32.206Z,97437.11
2018-07-07T00:29:10.745Z,97440.16
2018-07-07T00:30:46.788Z,97439.23
2018-07-07T00:32:22.459Z,97446.53
2018-07-07T00:33:59.518Z,97441.72
2018-07-07T00:35:43.651Z,97445.67
2018-07-07T00:37:19.391Z,97444.34
2018-07-07T00:38:54.648Z,97447.25
2018-07-07T00:40:31.251Z,97441.50
2018-07-07T00:42:07.649Z,97441.61
2018-07-07T00:43:44.438Z,97440.41
2018-07-07T00:45:22.910Z,97437.54
2018-07-07T00:47:01.054Z,97441.82
2018-07-07T00:48:37.248Z,97442.77
2018-07-07T00:50:16.061Z,97447.66
2018-07-07T00:51:51.521Z,97443.59
2018-07-07T00:53:27.821Z,97445.16
2018-07-07T00:55:04.623Z,97445.20
2018-07-07T00:56:40.411Z,97436.28
2018-07-07T00:58:15.565Z,97438.27
2018-07-07T00:59:52.463Z,97440.44
2018-07-07T01:01:29.649Z,97436.52
2018-07-07T01:03:06.007Z,97435.91
2018-07-07T01:04:43.213Z,97442.18
2018-07-07T01:06:27.222Z,97442.23
2018-07-07T01:08:05.416Z,97444.55
2018-07-07T01:09:40.584Z,97445.79
2018-07-07T01:11:15.853Z,97443.68
2018-07-07T01:12:52.492Z,97441.70
2018-07-07T01:14:27.684Z,97438.05
2018-07-07T01:16:04.367Z,97438.36
2018-07-07T01:17:40.912Z,97440.83
2018-07-07T01:19:17.156Z,97442.49
2018-07-07T01:20:53.704Z,97437.17
2018-07-07T01:22:29.016Z,97440.34
2018-07-07T01:24:04.640Z,97440.83
2018-07-07T01:25:39.671Z,97437.59
2018-07-07T01:27:17.288Z,97436.55
2018-07-07T01:28:54.345Z,97432.23
2018-07-07T01:30:30.375Z,97438.02
2018-07-07T01:32:06.319Z,97444.99
2018-07-07T01:33:42.340Z,97433.39
2018-07-07T01:35:18.008Z,97437.45
2018-07-07T01:36:53.955Z,97445.34
2018-07-07T01:38:30.049Z,97434.83
2018-07-07T01:40:07.971Z,97436.64
2018-07-07T01:41:43.068Z,97438.91
2018-07-07T01:43:20.171Z,97438.30
2018-07-07T01:44:55.834Z,97436.73
2018-07-07T01:46:31.030Z,97436.89
2018-07-07T01:48:07.820Z,97430.94
2018-07-07T01:49:43.009Z,97431.83
2018-07-07T01:51:18.553Z,97429.25
2018-07-07T01:52:54.097Z,97437.53
2018-07-07T01:54:30.237Z,97430.95
2018-07-07T01:56:06.399Z,97429.16
2018-07-07T01:57:41.710Z,97432.36
2018-07-07T01:59:18.503Z,97429.77
2018-07-07T02:00:57.447Z,97429.01
2018-07-07T02:02:35.286Z,97424.12
2018-07-07T02:04:12.182Z,97427.05
2018-07-07T02:05:48.492Z,97426.52
2018-07-07T02:07:26.364Z,97424.66
2018-07-07T02:09:01.697Z,97423.61
2018-07-07T02:10:37.777Z,97424.40
2018-07-07T02:12:13.383Z,97423.19
2018-07-07T02:13:49.412Z,97423.34
2018-07-07T02:15:26.307Z,97424.75
2018-07-07T02:17:02.450Z,97421.26
2018-07-07T02:18:39.258Z,97417.60
2018-07-07T02:20:15.126Z,97420.53
2018-07-07T02:21:51.968Z,97425.59
2018-07-07T02:23:27.817Z,97414.76
2018-07-07T02:25:02.872Z,97417.83
2018-07-07T02:26:38.138Z,97413.70
2018-07-07T02:28:13.702Z,97415.08
2018-07-07T02:29:50.026Z,97421.34
2018-07-07T02:31:25.345Z,97417.20
2018-07-07T02:33:00.582Z,97417.36
2018-07-07T02:34:35.725Z,97416.91
2018-07-07T02:36:11.241Z,97420.75
2018-07-07T02:37:46.541Z,97412.80
2018-07-07T02:39:21.598Z,97413.86
2018-07-07T02:40:56.959Z,97422.11
2018-07-07T02:42:32.196Z,97417.53
2018-07-07T02:44:08.184Z,97422.27
2018-07-07T02:45:43.321Z,97421.37
2018-07-07T02:47:18.752Z,97418.18
2018-07-07T02:48:54.882Z,97416.20
2018-07-07T02:50:30.142Z,97417.72
2018-07-07T02:52:05.441Z,97417.87
2018-07-07T02:53:40.485Z,97424.14
2018-07-07T02:55:15.770Z,97418.64
2018-07-07T02:56:50.797Z,97414.97
2018-07-07T02:58:25.993Z,97423.86
2018-07-07T03:00:04.208Z,97428.30
2018-07-07T03:01:39.507Z,97419.87
2018-07-07T03:03:14.717Z,97418.03
2018-07-07T03:04:49.752Z,97422.16
2018-07-07T03:06:25.332Z,97423.23
2018-07-07T03:08:00.414Z,97420.94
2018-07-07T03:09:35.582Z,97423.55
2018-07-07T03:11:11.658Z,97426.14
2018-07-07T03:12:47.804Z,97428.76
2018-07-07T03:14:23.956Z,97426.30
2018-07-07T03:15:59.144Z,97428.58
2018-07-07T03:17:34.341Z,97431.51
2018-07-07T03:19:11.078Z,97429.38
2018-07-07T03:20:47.237Z,97433.81
2018-07-07T03:22:23.385Z,97435.83
2018-07-07T03:23:58.609Z,97431.84
2018-07-07T03:25:33.814Z,97434.27
2018-07-07T03:27:09.129Z,97439.00
2018-07-07T03:28:44.109Z,97437.31
2018-07-07T03:30:20.553Z,97435.50
2018-07-07T03:31:55.826Z,97435.34
2018-07-07T03:33:30.928Z,97442.07
2018-07-07T03:35:06.025Z,97438.84
2018-07-07T03:36:41.595Z,97446.97
2018-07-07T03:38:16.694Z,97444.22
2018-07-07T03:39:51.938Z,97449.25
2018-07-07T03:41:26.932Z,97447.41
2018-07-07T03:43:01.841Z,97452.15
2018-07-07T03:44:37.471Z,97451.06
2018-07-07T03:46:12.482Z,97448.63
2018-07-07T03:47:47.591Z,97447.87
2018-07-07T03:49:22.582Z,97458.11
2018-07-07T03:50:57.557Z,97455.36
2018-07-07T03:52:33.058Z,97455.67
2018-07-07T03:54:07.880Z,97454.00
2018-07-07T03:55:42.915Z,97452.46
2018-07-07T03:57:17.966Z,97456.59
2018-07-07T03:58:53.290Z,97459.67
2018-07-07T04:00:28.870Z,97454.16
2018-07-07T04:02:03.902Z,97458.89
2018-07-07T04:03:38.917Z,97463.18
2018-07-07T04:05:14.016Z,97458.89
2018-07-07T04:06:50.401Z,97466.23
2018-07-07T04:08:29.996Z,97459.97
2018-07-07T04:10:05.236Z,97465.32
2018-07-07T04:11:40.309Z,97464.28
2018-07-07T04:13:15.497Z,97467.95
2018-07-07T04:14:50.877Z,97467.19
2018-07-07T04:16:25.967Z,97467.66
2018-07-07T04:18:00.969Z,97461.84
2018-07-07T04:19:36.066Z,97465.83
2018-07-07T04:21:14.225Z,97471.03
2018-07-07T04:22:50.689Z,97469.20
2018-07-07T04:24:25.780Z,97474.23
2018-07-07T04:26:01.940Z,97466.73
2018-07-07T04:27:37.126Z,97470.85
2018-07-07T04:29:12.235Z,97475.45
2018-07-07T04:30:47.439Z,97471.30
2018-07-07T04:32:23.142Z,97477.13
2018-07-07T04:33:58.144Z,97476.49
2018-07-07T04:35:33.122Z,97479.68
2018-07-07T04:37:08.738Z,97479.38
2018-07-07T04:38:44.059Z,97479.03
2018-07-07T04:40:19.525Z,97476.27
2018-07-07T04:41:55.150Z,97475.47
2018-07-07T04:43:30.764Z,97467.14
2018-07-07T04:45:09.649Z,97473.76
2018-07-07T04:46:46.525Z,97471.15
2018-07-07T04:48:22.836Z,97472.49
2018-07-07T04:49:58.581Z,97475.24
2018-07-07T04:51:33.743Z,97470.94
2018-07-07T04:53:10.072Z,97475.39
2018-07-07T04:54:45.726Z,97472.94
2018-07-07T04:56:21.808Z,97474.92
2018-07-07T04:57:57.046Z,97478.56
2018-07-07T04:59:36.333Z,97476.86
2018-07-07T05:01:13.063Z,97474.86
2018-07-07T05:02:48.334Z,97477.28
2018-07-07T05:04:23.653Z,97480.03
2018-07-07T05:06:00.165Z,97481.86
2018-07-07T05:07:37.304Z,97477.64
2018-07-07T05:09:12.383Z,97481.64
2018-07-07T05:10:47.480Z,97478.41
2018-07-07T05:12:22.884Z,97490.16
2018-07-07T05:13:57.997Z,97486.00
2018-07-07T05:15:33.304Z,97487.61
2018-07-07T05:17:08.395Z,97481.22
2018-07-07T05:18:44.715Z,97484.00
2018-07-07T05:20:21.866Z,97482.94
2018-07-07T05:21:56.890Z,97485.05
2018-07-07T05:23:33.071Z,97490.11
2018-07-07T05:25:10.345Z,97491.73
2018-07-07T05:26:45.854Z,97484.63
2018-07-07T05:28:21.520Z,97486.28
2018-07-07T05:29:56.683Z,97487.53
2018-07-07T05:31:32.574Z,97487.19
2018-07-07T05:33:07.529Z,97495.31
2018-07-07T05:34:42.693Z,97485.52
2018-07-07T05:36:19.101Z,97491.65
2018-07-07T05:37:54.551Z,97495.91
2018-07-07T05:39:31.102Z,97491.67
2018-07-07T05:41:06.372Z,97493.51
2018-07-07T05:42:41.603Z,97488.38
2018-07-07T05:44:19.160Z,97493.04
2018-07-07T05:45:54.679Z,97487.86
2018-07-07T05:47:29.552Z,97491.52
2018-07-07T05:49:05.507Z,97491.38
2018-07-07T05:50:40.540Z,97496.63
2018-07-07T05:52:16.303Z,97496.08
2018-07-07T05:53:51.701Z,97488.51
2018-07-07T05:55:27.227Z,97493.99
2018-07-07T05:57:02.168Z,97488.20
2018-07-07T05:58:37.246Z,97489.91
2018-07-07T06:00:15.813Z,97490.87
2018-07-07T06:01:50.829Z,97492.66
2018-07-07T06:03:25.972Z,97498.03
2018-07-07T06:05:00.941Z,97498.41
2018-07-07T06:06:36.250Z,97491.27
2018-07-07T06:08:12.541Z,97493.92
2018-07-07T06:09:47.630Z,97497.23
2018-07-07T06:11:24.034Z,97497.61
2018-07-07T06:12:59.811Z,97498.80
2018-07-07T06:14:39.985Z,97501.72
2018-07-07T06:16:15.992Z,97501.53
2018-07-07T06:17:50.921Z,97498.38
2018-07-07T06:19:26.170Z,97502.69
2018-07-07T06:21:01.716Z,97506.61
2018-07-07T06:22:38.305Z,97501.13
2018-07-07T06:24:13.674Z,97501.25
2018-07-07T06:25:48.784Z,97500.13
2018-07-07T06:27:23.977Z,97506.41
2018-07-07T06:28:59.596Z,97505.44
2018-07-07T06:30:34.899Z,97502.02
2018-07-07T06:32:11.089Z,97505.25
2018-07-07T06:33:46.526Z,97502.88
2018-07-07T06:35:22.844Z,97500.92
2018-07-07T06:37:00.820Z,97504.30
2018-07-07T06:38:37.101Z,97509.88
2018-07-07T06:40:12.548Z,97503.13
2018-07-07T06:41:49.888Z,97506.55
2018-07-07T06:43:25.350Z,97502.91
2018-07-07T06:45:08.465Z,97505.45
2018-07-07T06:46:43.893Z,97508.28
2018-07-07T06:48:19.877Z,97513.05
2018-07-07T06:49:55.501Z,97504.44
2018-07-07T06:51:32.340Z,97505.05
2018-07-07T06:53:08.747Z,97500.77
2018-07-07T06:54:44.256Z,97505.73
2018-07-07T06:56:19.499Z,97504.70
2018-07-07T06:57:54.881Z,97506.63
2018-07-07T06:59:29.981Z,97506.59
2018-07-07T07:01:06.284Z,97510.53
2018-07-07T07:02:44.426Z,97509.37
2018-07-07T07:04:19.607Z,97508.13
2018-07-07T07:05:57.401Z,97509.78
2018-07-07T07:07:33.895Z,97510.38
2018-07-07T07:09:11.204Z,97508.92
2018-07-07T07:10:50.673Z,97503.19
2018-07-07T07:12:27.613Z,97507.20
2018-07-07T07:14:03.805Z,97509.59
2018-07-07T07:15:40.671Z,97509.89
2018-07-07T07:17:18.309Z,97507.54
2018-07-07T07:18:54.200Z,97515.74
2018-07-07T07:20:29.429Z,97511.22
2018-07-07T07:22:04.979Z,97514.00
2018-07-07T07:23:42.040Z,97514.38
2018-07-07T07:25:18.064Z,97509.80
2018-07-07T07:26:53.351Z,97512.17
2018-07-07T07:28:28.498Z,97510.65
2018-07-07T07:30:06.655Z,97511.67
2018-07-07T07:31:45.063Z,97512.80
2018-07-07T07:33:20.469Z,97509.98
2018-07-07T07:34:56.196Z,97514.84
2018-07-07T07:36:39.906Z,97513.77
2018-07-07T07:38:15.209Z,97518.92
2018-07-07T07:39:50.595Z,97518.63
2018-07-07T07:41:26.677Z,97521.31
2018-07-07T07:43:02.935Z,97519.78
2018-07-07T07:44:39.829Z,97524.34
2018-07-07T07:46:16.444Z,97520.94
2018-07-07T07:47:55.127Z,97519.62
2018-07-07T07:49:34.835Z,97520.06
2018-07-07T07:51:12.016Z,97516.58
2018-07-07T07:54:33.072Z,97515.22
2018-07-07T07:56:08.707Z,97512.10
2018-07-07T07:57:45.541Z,97509.76
2018-07-07T07:59:21.322Z,97510.90
2018-07-07T08:00:58.336Z,97511.73
2018-07-07T08:02:38.211Z,97513.95
2018-07-07T08:04:15.268Z,97520.52
2018-07-07T08:05:52.590Z,97524.16
2018-07-07T08:07:28.147Z,97526.91
2018-07-07T08:09:03.388Z,97521.36
2018-07-07T08:10:38.389Z,97521.05
2018-07-07T08:12:15.276Z,97521.30
2018-07-07T08:13:51.997Z,97515.02
2018-07-07T08:15:28.132Z,97521.33
2018-07-07T08:17:06.702Z,97518.20
2018-07-07T08:18:47.214Z,97516.27
2018-07-07T08:20:23.318Z,97520.88
2018-07-07T08:22:01.126Z,97519.39
2018-07-07T08:23:37.060Z,97523.58
2018-07-07T08:25:12.909Z,97516.64
2018-07-07T08:26:49.293Z,97520.20
2018-07-07T08:28:25.440Z,97527.86
2018-07-07T08:30:02.760Z,97518.80
2018-07-07T08:31:40.164Z,97529.48
2018-07-07T08:33:16.715Z,97532.60
2018-07-07T08:34:51.963Z,97530.92
2018-07-07T08:36:27.810Z,97531.79
2018-07-07T08:38:07.113Z,97533.35
2018-07-07T08:39:42.781Z,97537.00
2018-07-07T08:41:22.365Z,97536.58
2018-07-07T08:42:58.276Z,97535.22
2018-07-07T08:44:34.979Z,97541.84
2018-07-07T08:46:13.020Z,97538.58
2018-07-07T08:47:48.391Z,97530.71
2018-07-07T08:49:23.596Z,97537.81
2018-07-07T08:50:59.031Z,97538.91
2018-07-07T08:52:34.905Z,97531.92
2018-07-07T08:54:11.296Z,97525.58
2018-07-07T08:55:46.817Z,97532.58
2018-07-07T08:57:22.961Z,97535.77
2018-07-07T08:58:58.592Z,97535.67
2018-07-07T09:00:37.396Z,97538.11
2018-07-07T09:02:12.665Z,97534.16
2018-07-07T09:03:47.994Z,97533.81
2018-07-07T09:05:24.522Z,97540.30
2018-07-07T09:07:00.742Z,97531.77
2018-07-07T09:08:35.583Z,97531.87
2018-07-07T09:10:11.268Z,97533.88
2018-07-07T09:11:49.088Z,97534.95
2018-07-07T09:13:24.767Z,97529.66
2018-07-07T09:15:00.342Z,97523.31
2018-07-07T09:16:36.856Z,97518.47
2018-07-07T09:18:14.596Z,97513.95
2018-07-07T09:19:50.956Z,97520.19
2018-07-07T09:21:28.373Z,97525.10
2018-07-07T09:23:08.685Z,97522.15
2018-07-07T09:26:25.196Z,97511.91
2018-07-07T09:28:02.569Z,97510.79
2018-07-07T09:29:39.411Z,97506.40
2018-07-07T09:31:16.482Z,97505.68
2018-07-07T09:32:53.841Z,97501.48
2018-07-07T09:34:32.107Z,97501.86
2018-07-07T09:36:13.202Z,97510.48
2018-07-07T09:37:53.738Z,97506.84
2018-07-07T09:39:31.387Z,97506.28
2018-07-07T09:41:09.049Z,97510.36
2018-07-07T09:42:47.707Z,97513.70
2018-07-07T09:46:17.018Z,97503.61
2018-07-07T09:47:58.478Z,97512.28
2018-07-07T09:49:39.378Z,97507.03
2018-07-07T09:51:21.576Z,97511.68
2018-07-07T09:53:12.645Z,97520.14
2018-07-07T09:54:54.184Z,97507.96
2018-07-07T09:56:34.482Z,97506.94
2018-07-07T09:58:15.789Z,97508.87
2018-07-07T10:00:24.286Z,97507.44
2018-07-07T10:02:08.701Z,97508.17
2018-07-07T10:09:32.991Z,97497.63
2018-07-07T10:11:09.910Z,97502.06
2018-07-07T10:12:50.118Z,97510.33
2018-07-07T10:14:31.731Z,97512.12
2018-07-07T10:16:10.844Z,97504.72
2018-07-07T10:17:48.037Z,97507.83
2018-07-07T10:19:29.651Z,97505.09
2018-07-07T10:21:08.686Z,97508.58
2018-07-07T10:22:48.397Z,97520.45
2018-07-07T10:26:21.534Z,97502.94
2018-07-07T10:27:58.721Z,97502.91
2018-07-07T10:29:36.116Z,97502.02
2018-07-07T10:31:12.351Z,97496.23
2018-07-07T10:33:00.355Z,97494.88
2018-07-07T10:34:45.032Z,97503.83
2018-07-07T10:36:29.372Z,97499.27
2018-07-07T10:38:13.522Z,97507.28
2018-07-07T10:39:57.699Z,97513.50
2018-07-07T10:41:38.763Z,97519.86
2018-07-07T10:43:19.503Z,97515.20
2018-07-07T10:46:46.682Z,97516.23
2018-07-07T10:48:29.431Z,97511.41
2018-07-07T10:50:08.271Z,97506.44
2018-07-07T10:51:45.206Z,97512.81
2018-07-07T10:53:21.868Z,97506.34
2018-07-07T10:55:08.311Z,97509.86
2018-07-07T10:56:45.913Z,97503.83
2018-07-07T10:58:22.470Z,97512.39
2018-07-07T11:00:05.711Z,97510.89
2018-07-07T11:01:44.128Z,97515.22
2018-07-07T11:03:20.772Z,97510.50
2018-07-07T11:04:58.866Z,97502.48
2018-07-07T11:06:38.144Z,97509.66
2018-07-07T11:08:23.478Z,97511.73
2018-07-07T11:09:59.628Z,97504.82
2018-07-07T11:11:40.622Z,97503.84
2018-07-07T11:13:17.978Z,97504.17
2018-07-07T11:14:56.670Z,97510.47
2018-07-07T11:16:34.842Z,97518.06
2018-07-07T11:18:11.219Z,97513.63
2018-07-07T11:19:49.395Z,97512.98
2018-07-07T11:21:29.382Z,97505.45
2018-07-07T11:23:06.526Z,97510.98
2018-07-07T11:25:14.498Z,97512.94
2018-07-07T11:26:51.023Z,97508.22
2018-07-07T11:28:27.734Z,97504.98
2018-07-07T11:30:10.772Z,97507.91
2018-07-07T11:31:51.770Z,97508.37
2018-07-07T11:33:28.955Z,97507.02
2018-07-07T11:35:25.471Z,97497.95
2018-07-07T11:37:04.076Z,97509.42
2018-07-07T11:38:40.993Z,97500.89
2018-07-07T11:40:16.552Z,97501.86
2018-07-07T11:41:55.109Z,97501.29
2018-07-07T11:43:32.073Z,97508.54
2018-07-07T11:45:13.787Z,97491.15
2018-07-07T11:46:51.678Z,97490.39
2018-07-07T11:48:27.506Z,97504.16
2018-07-07T11:50:03.727Z,97502.96
2018-07-07T11:51:38.887Z,97495.95
2018-07-07T11:53:18.991Z,97512.41
2018-07-07T11:54:56.034Z,97502.27
2018-07-07T11:56:34.241Z,97513.16
2018-07-07T11:58:12.375Z,97511.93
2018-07-07T11:59:52.280Z,97504.25
2018-07-07T12:01:29.455Z,97505.88
2018-07-07T12:03:05.245Z,97495.52
2018-07-07T12:04:48.119Z,97502.88
2018-07-07T12:06:24.621Z,97498.79
2018-07-07T12:08:13.781Z,97507.84
2018-07-07T12:09:40.501Z,97496.06
2018-07-07T12:11:16.668Z,97503.78
2018-07-07T12:14:35.513Z,97497.91
2018-07-07T12:16:11.225Z,97503.02
2018-07-07T12:17:46.451Z,97500.86
2018-07-07T12:19:26.075Z,97496.90
2018-07-07T12:21:01.880Z,97488.94
2018-07-07T12:28:13.523Z,97487.87
2018-07-07T12:29:51.406Z,97495.20
2018-07-07T12:31:26.598Z,97497.46
2018-07-07T12:33:04.161Z,97498.98
2018-07-07T12:34:43.718Z,97491.44
2018-07-07T12:36:19.446Z,97485.06
2018-07-07T12:38:01.386Z,97479.72
2018-07-07T12:39:42.621Z,97488.11
2018-07-07T12:41:20.995Z,97480.17
2018-07-07T12:42:58.435Z,97487.42
2018-07-07T12:44:40.532Z,97486.77
2018-07-07T12:46:21.760Z,97486.58
2018-07-07T12:48:01.460Z,97488.11
2018-07-07T12:49:40.664Z,97489.62
2018-07-07T12:51:18.294Z,97482.56
2018-07-07T12:52:56.504Z,97473.69
2018-07-07T12:54:33.308Z,97478.25
2018-07-07T12:56:13.987Z,97487.92
2018-07-07T12:57:51.552Z,97482.30
2018-07-07T12:59:28.197Z,97479.41
2018-07-07T13:01:04.827Z,97479.17
2018-07-07T13:02:42.721Z,97481.28
2018-07-07T13:04:21.277Z,97479.23
2018-07-07T13:05:56.781Z,97470.36
2018-07-07T13:07:31.894Z,97470.77
2018-07-07T13:09:10.135Z,97487.14
2018-07-07T13:10:45.593Z,97470.95
2018-07-07T13:12:20.676Z,97484.46
2018-07-07T13:13:56.533Z,97478.74
2018-07-07T13:15:33.113Z,97469.59
2018-07-07T13:17:08.898Z,97477.26
2018-07-07T13:18:47.737Z,97482.56
2018-07-07T13:20:24.690Z,97473.62
2018-07-07T13:22:02.731Z,97472.16
2018-07-07T13:23:40.117Z,97472.24
2018-07-07T13:25:17.273Z,97475.52
2018-07-07T13:26:53.421Z,97470.70
2018-07-07T13:28:31.629Z,97467.32
2018-07-07T13:30:15.608Z,97470.36
2018-07-07T13:31:52.135Z,97470.23
2018-07-07T13:33:32.544Z,97471.53
2018-07-07T13:35:09.618Z,97471.83
2018-07-07T13:36:49.466Z,97477.46
2018-07-07T13:38:28.669Z,97476.51
2018-07-07T13:40:05.448Z,97479.41
2018-07-07T13:41:46.858Z,97483.48
2018-07-07T13:43:30.639Z,97474.91
2018-07-07T13:45:16.185Z,97478.61
2018-07-07T13:46:57.025Z,97479.05
2018-07-07T13:48:35.772Z,97476.96
2018-07-07T13:50:13.658Z,97478.30
2018-07-07T13:51:51.978Z,97480.74
2018-07-07T13:53:30.620Z,97482.28
2018-07-07T13:55:06.682Z,97482.67
2018-07-07T13:56:43.641Z,97474.91
2018-07-07T13:58:23.983Z,97470.30
2018-07-07T14:01:54.660Z,97476.95
2018-07-07T14:03:35.243Z,97478.70
2018-07-07T14:05:14.839Z,97478.17
2018-07-07T14:06:53.089Z,97474.34
2018-07-07T14:08:34.771Z,97468.66
2018-07-07T14:10:16.557Z,97467.19
2018-07-07T14:12:00.411Z,97470.01
2018-07-07T14:15:29.868Z,97468.14
2018-07-07T14:17:08.890Z,97478.50
2018-07-07T14:18:46.519Z,97474.73
2018-07-07T14:20:25.108Z,97476.14
2018-07-07T14:22:01.983Z,97473.70
2018-07-07T14:23:38.245Z,97472.06
2018-07-07T14:25:15.242Z,97471.12
2018-07-07T14:26:53.153Z,97470.84
2018-07-07T14:28:30.012Z,97468.84
2018-07-07T14:30:16.664Z,97471.34
2018-07-07T14:31:53.513Z,97469.31
2018-07-07T14:33:32.287Z,97469.34
2018-07-07T14:35:08.849Z,97476.32
2018-07-07T14:36:46.341Z,97467.50
2018-07-07T14:38:29.329Z,97478.63
2018-07-07T14:40:06.716Z,97459.61
2018-07-07T14:41:44.386Z,97463.06
2018-07-07T14:43:22.950Z,97456.83
2018-07-07T14:45:03.703Z,97471.27
2018-07-07T14:46:43.016Z,97466.91
2018-07-07T14:48:21.901Z,97465.25
2018-07-07T14:50:00.644Z,97467.72
2018-07-07T14:51:38.282Z,97465.44
2018-07-07T14:53:15.903Z,97468.24
2018-07-07T14:54:57.119Z,97464.48
2018-07-07T14:56:35.017Z,97463.48
2018-07-07T14:58:20.588Z,97470.74
2018-07-07T14:59:56.399Z,97467.50
2018-07-07T15:01:33.476Z,97466.10
2018-07-07T15:03:10.403Z,97470.01
2018-07-07T15:04:56.900Z,97471.70
2018-07-07T15:06:37.432Z,97471.68
2018-07-07T15:08:20.511Z,97473.74
2018-07-07T15:09:58.460Z,97473.28
2018-07-07T15:11:38.663Z,97466.46
2018-07-07T15:13:18.679Z,97466.45
2018-07-07T15:14:57.454Z,97457.51
2018-07-07T15:16:36.618Z,97459.39
2018-07-07T15:18:15.040Z,97456.83
2018-07-07T15:20:02.559Z,97455.34
2018-07-07T15:21:43.759Z,97458.02
2018-07-07T15:23:23.200Z,97461.26
2018-07-07T15:25:13.479Z,97444.97
2018-07-07T15:26:56.785Z,97455.27
2018-07-07T15:28:34.460Z,97454.52
2018-07-07T15:30:18.453Z,97456.70
2018-07-07T15:32:04.285Z,97461.08
2018-07-07T15:33:42.319Z,97462.22
2018-07-07T15:35:23.714Z,97455.30
2018-07-07T15:37:00.141Z,97465.66
2018-07-07T15:38:40.497Z,97454.55
2018-07-07T15:40:20.118Z,97453.72
2018-07-07T15:41:57.644Z,97448.88
2018-07-07T15:43:36.567Z,97444.18
2018-07-07T15:45:15.984Z,97453.47
2018-07-07T15:47:00.160Z,97456.11
2018-07-07T15:48:39.084Z,97453.30
2018-07-07T15:50:18.895Z,97449.12
2018-07-07T15:51:56.300Z,97448.06
2018-07-07T15:53:32.258Z,97449.98
2018-07-07T15:55:24.417Z,97455.87
2018-07-07T15:58:45.184Z,97442.11
2018-07-07T16:00:24.809Z,97452.62
2018-07-07T16:04:47.100Z,97435.84
2018-07-07T16:06:26.735Z,97451.48
2018-07-07T16:08:26.356Z,97444.14
2018-07-07T16:10:03.676Z,97448.23
2018-07-07T16:12:00.461Z,97442.05
2018-07-07T16:13:41.258Z,97448.41
2018-07-07T16:15:28.155Z,97446.31
2018-07-07T16:17:05.199Z,97450.41
2018-07-07T16:18:43.631Z,97444.62
2018-07-07T16:20:21.045Z,97448.22
2018-07-07T16:21:56.918Z,97446.34
2018-07-07T16:23:34.042Z,97438.60
2018-07-07T16:25:11.073Z,97451.55
2018-07-07T16:26:47.548Z,97443.22
2018-07-07T16:28:25.037Z,97446.34
2018-07-07T16:30:00.929Z,97447.82
2018-07-07T16:31:38.857Z,97446.96
2018-07-07T16:33:16.811Z,97439.61
2018-07-07T16:34:55.615Z,97447.72
2018-07-07T16:36:32.743Z,97441.85
2018-07-07T16:38:10.301Z,97437.22
2018-07-07T16:39:46.827Z,97437.34
2018-07-07T16:41:23.909Z,97437.77
2018-07-07T16:43:01.243Z,97437.52
2018-07-07T16:44:40.597Z,97439.53
2018-07-07T16:46:19.082Z,97438.09
2018-07-07T16:48:02.603Z,97445.05
2018-07-07T16:49:41.664Z,97441.33
2018-07-07T16:51:50.164Z,97439.81
2018-07-07T16:53:36.751Z,97440.15
2018-07-07T16:55:16.972Z,97435.66
2018-07-07T16:56:56.153Z,97437.64
2018-07-07T16:58:35.599Z,97432.41
2018-07-07T17:00:17.719Z,97441.28
2018-07-07T17:01:56.739Z,97427.61
2018-07-07T17:03:36.071Z,97436.84
2018-07-07T17:05:14.919Z,97435.30
2018-07-07T17:06:54.855Z,97430.98
2018-07-07T17:08:31.843Z,97439.97
2018-07-07T17:10:09.008Z,97431.28
2018-07-07T17:11:49.742Z,97445.06
2018-07-07T17:13:32.610Z,97441.68
2018-07-07T17:15:17.150Z,97443.00
2018-07-07T17:16:54.921Z,97437.22
2018-07-07T17:18:32.639Z,97435.39
2018-07-07T17:20:22.860Z,97434.11
2018-07-07T17:22:00.690Z,97430.51
2018-07-07T17:23:37.790Z,97435.28
2018-07-07T17:25:15.346Z,97432.47
2018-07-07T17:26:54.522Z,97434.75
2018-07-07T17:28:31.539Z,97431.31
2018-07-07T17:30:09.727Z,97433.87
2018-07-07T17:31:46.755Z,97425.36
2018-07-07T17:33:24.912Z,97436.45
2018-07-07T17:35:01.355Z,97435.62
2018-07-07T17:36:37.562Z,97434.22
2018-07-07T17:38:17.770Z,97437.46
2018-07-07T17:39:54.714Z,97433.53
2018-07-07T17:41:34.046Z,97430.36
2018-07-07T17:43:11.832Z,97429.15
2018-07-07T17:44:49.371Z,97424.22
2018-07-07T17:46:28.907Z,97432.45
2018-07-07T17:48:11.547Z,97429.41
2018-07-07T17:49:50.525Z,97430.69
2018-07-07T17:51:29.408Z,97428.38
2018-07-07T17:53:14.288Z,97439.69
2018-07-07T17:54:53.529Z,97441.71
2018-07-07T17:56:31.971Z,97438.63
2018-07-07T17:58:11.055Z,97430.73
2018-07-07T17:59:50.198Z,97433.91
2018-07-07T18:01:26.849Z,97446.11
2018-07-07T18:03:21.237Z,97438.77
2018-07-07T18:05:01.194Z,97446.63
2018-07-07T18:06:40.249Z,97435.72
2018-07-07T18:08:17.047Z,97443.58
2018-07-07T18:09:55.126Z,97434.33
2018-07-07T18:11:32.279Z,97442.85
2018-07-07T18:14:49.552Z,97434.53
2018-07-07T18:16:27.622Z,97444.47
2018-07-07T18:18:06.806Z,97437.87
2018-07-07T18:19:45.555Z,97434.52
2018-07-07T18:21:23.803Z,97438.45
2018-07-07T18:23:10.557Z,97440.87
2018-07-07T18:24:48.646Z,97433.59
2018-07-07T18:26:29.401Z,97430.67
2018-07-07T18:28:07.692Z,97430.81
2018-07-07T18:29:46.576Z,97430.09
2018-07-07T18:31:24.910Z,97440.28
2018-07-07T18:33:02.144Z,97430.98
2018-07-07T18:34:39.725Z,97432.80
2018-07-07T18:36:27.840Z,97439.77
2018-07-07T18:38:06.912Z,97431.91
2018-07-07T18:39:50.058Z,97432.80
2018-07-07T18:41:26.631Z,97427.36
2018-07-07T18:43:04.494Z,97433.34
2018-07-07T18:44:42.721Z,97429.92
2018-07-07T18:46:21.522Z,97427.77
2018-07-07T18:48:02.298Z,97429.80
2018-07-07T18:49:41.893Z,97431.31
2018-07-07T18:51:25.042Z,97428.66
2018-07-07T18:53:04.990Z,97432.59
2018-07-07T18:54:51.505Z,97433.83
2018-07-07T18:56:33.917Z,97427.92
2018-07-07T18:58:15.715Z,97431.36
2018-07-07T18:59:55.823Z,97441.11
2018-07-07T19:01:37.036Z,97436.33
2018-07-07T19:03:16.758Z,97438.56
2018-07-07T19:04:59.494Z,97438.94
2018-07-07T19:06:38.085Z,97432.22
2018-07-07T19:08:22.261Z,97427.51
2018-07-07T19:10:03.919Z,97433.71
2018-07-07T19:11:45.561Z,97436.97
2018-07-07T19:13:31.812Z,97439.69
2018-07-07T19:15:14.985Z,97430.75
2018-07-07T19:16:57.362Z,97432.69
2018-07-07T19:18:39.433Z,97435.82
2018-07-07T19:20:22.738Z,97433.13
2018-07-07T19:22:14.330Z,97437.11
2018-07-07T19:23:58.089Z,97435.91
2018-07-07T19:25:42.004Z,97438.38
2018-07-07T19:27:24.518Z,97436.96
2018-07-07T19:29:07.410Z,97437.52
2018-07-07T19:30:47.627Z,97439.45
2018-07-07T19:32:34.563Z,97442.84
2018-07-07T19:34:17.941Z,97443.38
2018-07-07T19:36:01.468Z,97440.57
2018-07-07T19:37:38.365Z,97441.94
2018-07-07T19:39:18.051Z,97444.67
2018-07-07T19:41:04.017Z,97443.31
2018-07-07T19:42:49.323Z,97450.10